Terminal Aerodrome Forecast
Issued by NWS Charleston, WV

Home | Current Version | Previous Version | Text Only | Print | Product List | Glossary On
Versions: 1 2 3 4 5 6 7 8 9 10 11 12 13 14 15 16 17 18 19 20 21 22 23 24 25 26 27 28 29 30 31
554
FTUS41 KRLX 232330
TAFPKB
TAF
KPKB 232330Z 2400/2424 24008KT P6SM VCTS BKN035CB
      TEMPO 2400/2402 4SM +TSRA OVC025CB
     FM240700 00000KT P6SM BKN010
     FM241100 00000KT 6SM BR SCT003 BKN015
     FM241400 24004KT P6SM SCT250=

USA.gov is the U.S. government's official web portal to all federal, state and local government web resources and services.